Time;durP1;ratioP1;P1;durP2;ratioP2;P2;SDS_P1;SDS_P2;PMS_P1;PMS_P2;Temp;Humidity;BMP_temperature;BMP_pressure;BME280_temperature;BME280_humidity;BME280_pressure;Samples;Min_cycle;Max_cycle;Signal;HPM_P1;HPM_P2
2023/01/11 00:00:32;;;;;;;65.90;9.73;;;7.80;99.90;;;;;;6222855;23;20151;-85
2023/01/11 00:03:02;;;;;;;67.93;9.30;;;7.90;99.90;;;;;;6222261;23;20164;-85
2023/01/11 00:05:28;;;;;;;65.15;7.00;;;7.90;99.90;;;;;;6222691;23;20132;-85
2023/01/11 00:07:54;;;;;;;64.97;7.13;;;7.90;99.90;;;;;;6195015;23;20279;-85
2023/01/11 00:10:20;;;;;;;64.47;6.38;;;7.90;99.90;;;;;;6221746;23;20136;-85
2023/01/11 00:12:47;;;;;;;65.18;7.85;;;8.00;99.90;;;;;;6220858;23;20194;-85
2023/01/11 00:15:13;;;;;;;66.07;10.43;;;8.00;99.90;;;;;;6194342;23;20149;-85
2023/01/11 00:17:42;;;;;;;66.47;12.70;;;8.00;99.90;;;;;;6194675;23;20188;-85
2023/01/11 00:20:10;;;;;;;66.53;11.73;;;8.10;99.90;;;;;;6221312;23;20582;-85
2023/01/11 00:22:36;;;;;;;66.65;10.40;;;8.10;99.90;;;;;;6194662;23;20164;-85
2023/01/11 00:25:02;;;;;;;67.78;14.07;;;8.20;99.90;;;;;;6220677;23;20148;-85
2023/01/11 00:27:28;;;;;;;66.63;12.00;;;8.20;99.90;;;;;;6221439;23;20156;-84
2023/01/11 00:29:54;;;;;;;64.77;7.43;;;8.30;99.90;;;;;;6220997;23;20168;-85
2023/01/11 00:32:19;;;;;;;67.17;11.77;;;8.30;99.90;;;;;;6194111;23;20152;-85
2023/01/11 00:34:45;;;;;;;64.97;7.57;;;8.40;99.90;;;;;;6220419;23;20211;-85
2023/01/11 00:37:11;;;;;;;67.67;8.20;;;8.40;99.90;;;;;;6194491;23;20478;-85
2023/01/11 00:39:36;;;;;;;72.87;9.03;;;8.40;99.90;;;;;;6193855;23;20584;-85
2023/01/11 00:50:14;;;;;;;65.43;8.38;;;8.50;99.90;;;;;;6221338;23;20136;-85
2023/01/11 00:52:40;;;;;;;64.67;6.60;;;8.50;99.90;;;;;;6194302;23;20149;-85
2023/01/11 00:55:06;;;;;;;66.00;7.00;;;8.50;99.90;;;;;;6218960;23;20141;-85
2023/01/11 00:57:32;;;;;;;64.95;7.18;;;8.50;99.90;;;;;;6191569;23;20274;-85
2023/01/11 00:59:57;;;;;;;64.73;7.10;;;8.60;99.90;;;;;;6218872;23;20140;-85
2023/01/11 01:02:23;;;;;;;65.37;5.90;;;8.50;99.90;;;;;;6191983;23;20149;-85
2023/01/11 01:04:49;;;;;;;64.40;5.83;;;8.60;99.90;;;;;;6218721;23;20165;-85
2023/01/11 01:07:14;;;;;;;64.17;6.67;;;8.50;99.90;;;;;;6218897;23;20157;-85
2023/01/11 01:09:40;;;;;;;64.30;5.40;;;8.60;99.90;;;;;;6191858;23;20228;-85
2023/01/11 01:12:07;;;;;;;64.30;5.80;;;8.60;99.90;;;;;;6218256;23;20143;-85
2023/01/11 01:14:34;;;;;;;65.20;6.53;;;8.60;99.90;;;;;;6191286;23;20177;-85
2023/01/11 01:17:08;;;;;;;65.45;5.75;;;8.60;99.90;;;;;;6218828;23;20164;-85
2023/01/11 01:19:36;;;;;;;65.47;6.85;;;8.60;99.90;;;;;;6218742;23;20156;-85
2023/01/11 01:22:02;;;;;;;66.03;8.02;;;8.60;99.90;;;;;;6218490;23;20513;-85
2023/01/11 01:24:29;;;;;;;65.07;8.00;;;8.60;99.90;;;;;;6191446;23;20179;-85
2023/01/11 01:26:57;;;;;;;68.47;11.52;;;8.60;99.90;;;;;;6193502;23;20391;-85
2023/01/11 01:29:23;;;;;;;66.20;9.07;;;8.60;99.90;;;;;;6220358;23;20220;-85
2023/01/11 01:31:49;;;;;;;66.13;8.15;;;8.60;99.90;;;;;;6218729;23;20167;-85
2023/01/11 01:34:15;;;;;;;67.17;10.97;;;8.70;99.90;;;;;;6218309;23;20594;-85
2023/01/11 01:36:41;;;;;;;65.47;8.18;;;8.70;99.90;;;;;;6218350;23;20164;-85
2023/01/11 01:39:08;;;;;;;66.27;9.30;;;8.70;99.90;;;;;;6192105;23;20154;-85
2023/01/11 01:41:35;;;;;;;65.43;7.95;;;8.70;99.90;;;;;;6218739;23;20671;-85
2023/01/11 01:44:03;;;;;;;66.57;6.53;;;8.70;99.90;;;;;;6218102;23;20168;-85
2023/01/11 01:46:31;;;;;;;65.35;7.97;;;8.70;99.90;;;;;;6191602;23;20187;-85
2023/01/11 01:49:13;;;;;;;65.70;7.60;;;8.80;99.90;;;;;;6191889;23;20214;-85
2023/01/11 01:51:44;;;;;;;64.82;7.50;;;8.70;99.90;;;;;;6191373;23;20145;-85
2023/01/11 01:54:15;;;;;;;66.20;9.27;;;8.80;99.90;;;;;;6191683;23;20279;-85
2023/01/11 01:56:49;;;;;;;66.72;11.18;;;8.70;99.90;;;;;;6218580;23;20175;-85
2023/01/11 01:59:18;;;;;;;66.65;11.70;;;8.80;99.90;;;;;;6191859;23;20151;-85
2023/01/11 02:01:45;;;;;;;65.85;9.85;;;8.80;99.90;;;;;;6218606;23;20582;-85
2023/01/11 02:04:36;;;;;;;65.53;8.13;;;8.80;99.90;;;;;;6218555;23;20222;-85
2023/01/11 02:07:06;;;;;;;65.18;8.05;;;8.80;99.90;;;;;;6192390;23;20251;-85
2023/01/11 02:10:03;;;;;;;66.22;9.90;;;8.80;99.90;;;;;;6219496;23;20572;-85
2023/01/11 02:12:37;;;;;;;64.70;5.63;;;8.80;99.90;;;;;;6177696;23;20144;-85
2023/01/11 02:15:03;;;;;;;65.93;9.10;;;8.80;99.90;;;;;;6192232;23;20486;-85
2023/01/11 02:17:29;;;;;;;66.28;9.80;;;8.80;99.90;;;;;;6192169;23;20200;-85
2023/01/11 02:20:20;;;;;;;67.20;12.90;;;8.80;99.90;;;;;;6192329;23;20156;-85
2023/01/11 02:23:07;;;;;;;66.35;12.15;;;8.80;99.90;;;;;;6191731;23;20214;-85
2023/01/11 02:25:52;;;;;;;68.68;12.00;;;8.80;99.90;;;;;;6218570;23;20125;-85
2023/01/11 02:28:51;;;;;;;67.13;11.77;;;8.80;99.90;;;;;;6218805;23;20125;-85
2023/01/11 02:31:57;;;;;;;66.47;10.35;;;8.80;99.90;;;;;;6191690;23;20137;-85
2023/01/11 02:34:42;;;;;;;67.35;10.90;;;8.90;99.90;;;;;;6218022;23;20144;-85
2023/01/11 02:37:23;;;;;;;67.22;11.63;;;8.90;99.90;;;;;;6218345;23;20171;-85
2023/01/11 02:40:15;;;;;;;65.70;8.93;;;8.90;99.90;;;;;;6217615;23;20172;-85
2023/01/11 02:45:43;;;;;;;67.43;13.00;;;8.90;99.90;;;;;;6218511;23;20513;-85
2023/01/11 02:48:13;;;;;;;67.43;13.30;;;8.90;99.90;;;;;;6218437;23;20148;-85
2023/01/11 02:50:39;;;;;;;67.43;11.98;;;8.90;99.90;;;;;;6191480;23;20143;-85
2023/01/11 02:53:13;;;;;;;67.30;12.67;;;9.00;99.90;;;;;;6191887;23;20153;-85
2023/01/11 02:55:43;;;;;;;67.28;13.60;;;9.00;99.90;;;;;;6191111;23;20632;-85
2023/01/11 02:58:11;;;;;;;67.78;13.80;;;9.00;99.90;;;;;;6219343;23;20148;-84
2023/01/11 03:00:39;;;;;;;66.78;11.57;;;9.10;99.90;;;;;;6193850;23;20218;-85
2023/01/11 03:03:15;;;;;;;67.10;11.85;;;9.10;99.90;;;;;;6221339;23;20268;-85
2023/01/11 03:05:52;;;;;;;70.40;14.73;;;9.10;99.90;;;;;;6195884;23;20168;-86
2023/01/11 03:08:29;;;;;;;66.45;10.90;;;9.10;99.90;;;;;;6194575;23;20159;-86
2023/01/11 03:11:08;;;;;;;68.00;12.85;;;9.10;99.90;;;;;;6193347;23;20167;-86
2023/01/11 03:13:54;;;;;;;66.65;11.02;;;9.10;99.90;;;;;;6193475;23;20148;-86
2023/01/11 03:16:49;;;;;;;66.45;10.85;;;9.10;99.90;;;;;;6219912;23;20206;-88
2023/01/11 03:19:31;;;;;;;68.55;11.18;;;9.10;99.90;;;;;;6089506;23;20187;-88
2023/01/11 03:22:19;;;;;;;67.03;11.93;;;9.10;99.90;;;;;;6219381;23;20203;-88
2023/01/11 03:24:57;;;;;;;66.22;10.48;;;9.10;99.90;;;;;;6192400;23;20167;-88
2023/01/11 03:27:49;;;;;;;66.72;10.65;;;9.10;99.90;;;;;;6219475;23;20156;-88
2023/01/11 03:30:41;;;;;;;65.95;9.35;;;9.20;99.90;;;;;;6187112;23;20153;-88
2023/01/11 03:33:21;;;;;;;66.05;11.07;;;9.10;99.90;;;;;;6191999;23;20238;-87
2023/01/11 03:36:18;;;;;;;66.45;10.82;;;9.20;99.90;;;;;;6218829;23;20164;-88
2023/01/11 03:38:59;;;;;;;66.10;9.20;;;9.20;99.90;;;;;;6210345;23;20227;-88
2023/01/11 03:41:32;;;;;;;69.53;9.55;;;9.20;99.90;;;;;;6219359;23;20140;-88
2023/01/11 03:44:01;;;;;;;65.78;9.55;;;9.20;99.90;;;;;;6219288;23;20187;-88
2023/01/11 03:46:31;;;;;;;66.13;9.25;;;9.30;99.90;;;;;;6192496;23;20194;-89
2023/01/11 03:49:09;;;;;;;65.63;8.32;;;9.30;99.90;;;;;;6219592;23;20129;-88
2023/01/11 03:51:41;;;;;;;66.78;10.77;;;9.30;99.90;;;;;;6219572;23;20129;-88
2023/01/11 03:54:08;;;;;;;66.30;10.57;;;9.30;99.90;;;;;;6219309;23;20137;-87
2023/01/11 03:56:59;;;;;;;65.57;8.15;;;9.40;99.90;;;;;;6219370;23;20501;-87
2023/01/11 03:59:26;;;;;;;65.47;8.40;;;9.60;99.90;;;;;;6219067;23;20235;-87
2023/01/11 04:01:53;;;;;;;67.75;7.03;;;9.70;99.90;;;;;;6221328;23;20663;-89
2023/01/11 04:04:19;;;;;;;66.45;8.93;;;9.80;99.90;;;;;;6198885;23;20203;-88
2023/01/11 04:06:45;;;;;;;66.70;11.87;;;10.00;99.90;;;;;;6225749;23;20156;-88
2023/01/11 04:09:10;;;;;;;66.53;10.65;;;10.00;99.90;;;;;;6226806;23;20175;-88
2023/01/11 04:11:36;;;;;;;66.40;7.03;;;10.00;99.90;;;;;;6226520;23;20143;-88
2023/01/11 04:14:02;;;;;;;65.37;6.77;;;10.00;99.90;;;;;;6226941;23;20215;-88
2023/01/11 04:16:27;;;;;;;65.53;8.37;;;10.00;99.90;;;;;;6202327;23;20618;-88
2023/01/11 04:18:53;;;;;;;65.40;7.10;;;10.10;99.90;;;;;;6227921;23;20151;-88
2023/01/11 04:21:19;;;;;;;65.47;7.57;;;10.10;99.90;;;;;;6225886;23;20156;-87
2023/01/11 04:23:44;;;;;;;66.57;9.37;;;10.00;99.90;;;;;;6227183;23;20156;-89
2023/01/11 04:26:10;;;;;;;66.47;10.13;;;10.10;99.90;;;;;;6229077;23;20157;-88
2023/01/11 04:28:35;;;;;;;66.50;9.80;;;10.10;99.90;;;;;;6228241;23;20586;-88
2023/01/11 04:31:01;;;;;;;66.37;10.20;;;10.10;99.90;;;;;;6199578;23;20153;-88
2023/01/11 04:33:27;;;;;;;68.33;17.17;;;10.10;99.90;;;;;;6228818;23;20482;-88
2023/01/11 04:35:53;;;;;;;68.07;15.23;;;10.10;99.90;;;;;;6228608;23;20160;-87
2023/01/11 04:38:18;;;;;;;68.37;16.30;;;10.10;99.90;;;;;;6227009;23;20145;-88
2023/01/11 04:40:46;;;;;;;68.47;16.67;;;10.10;99.90;;;;;;6200572;23;20653;-88
2023/01/11 04:43:11;;;;;;;69.40;14.80;;;10.10;99.90;;;;;;6226764;23;20168;-89
2023/01/11 04:45:37;;;;;;;67.20;12.03;;;10.10;99.90;;;;;;6199515;23;20148;-88
2023/01/11 04:48:03;;;;;;;67.27;12.40;;;10.10;99.90;;;;;;6198840;23;20654;-88
2023/01/11 04:50:28;;;;;;;69.07;17.53;;;10.10;99.90;;;;;;6223090;23;20141;-88
2023/01/11 04:52:54;;;;;;;68.17;15.37;;;10.10;99.90;;;;;;6194034;23;20376;-88
2023/01/11 04:55:20;;;;;;;66.63;10.20;;;10.10;99.90;;;;;;6219160;23;20137;-88
2023/01/11 04:57:46;;;;;;;70.97;14.30;;;10.10;99.90;;;;;;6218667;23;20451;-87
2023/01/11 05:00:14;;;;;;;68.57;12.90;;;10.10;99.90;;;;;;6219437;23;20148;-88
2023/01/11 05:02:40;;;;;;;69.85;18.85;;;10.10;99.90;;;;;;6198346;23;20418;-88
2023/01/11 05:05:07;;;;;;;68.20;14.57;;;10.10;99.90;;;;;;6222837;23;20172;-88
2023/01/11 05:07:33;;;;;;;67.25;12.40;;;10.20;99.90;;;;;;6220002;23;20157;-88
2023/01/11 05:09:58;;;;;;;66.25;7.75;;;10.20;99.90;;;;;;6218561;23;20152;-88
2023/01/11 05:12:24;;;;;;;66.07;9.40;;;10.20;99.90;;;;;;6191217;23;20485;-88
2023/01/11 05:14:50;;;;;;;67.30;12.10;;;10.20;99.90;;;;;;6218160;23;20648;-87
2023/01/11 05:17:16;;;;;;;68.37;13.57;;;10.20;99.90;;;;;;6218299;23;20234;-87
2023/01/11 05:19:42;;;;;;;67.30;12.15;;;10.20;99.90;;;;;;6218257;23;20149;-87
2023/01/11 05:22:08;;;;;;;67.82;14.38;;;10.20;99.90;;;;;;6191321;23;20171;-88
2023/01/11 05:24:35;;;;;;;68.97;16.23;;;10.20;99.90;;;;;;6218253;23;20167;-88
2023/01/11 05:27:01;;;;;;;68.97;16.88;;;10.20;99.90;;;;;;6218030;23;20166;-87
2023/01/11 05:29:27;;;;;;;69.47;18.70;;;10.30;99.90;;;;;;6218406;23;20479;-87
2023/01/11 05:31:53;;;;;;;69.25;17.65;;;10.30;99.90;;;;;;6219195;23;20364;-87
2023/01/11 05:34:19;;;;;;;67.27;12.27;;;10.30;99.90;;;;;;6220255;23;20152;-87
2023/01/11 05:36:45;;;;;;;66.27;10.47;;;10.30;99.90;;;;;;6198014;23;20733;-88
2023/01/11 05:39:12;;;;;;;67.85;13.13;;;10.30;99.90;;;;;;6199633;23;20148;-88
2023/01/11 05:41:41;;;;;;;71.82;18.50;;;10.30;99.90;;;;;;6196553;23;20155;-88
2023/01/11 05:46:55;;;;;;;67.05;11.65;;;10.30;99.90;;;;;;6220883;23;20202;-88
2023/01/11 05:49:20;;;;;;;69.27;17.97;;;10.30;99.90;;;;;;6220876;23;20509;-88
2023/01/11 05:51:46;;;;;;;71.17;21.67;;;10.30;99.90;;;;;;6219930;23;20133;-88
2023/01/11 05:54:13;;;;;;;69.60;16.20;;;10.30;99.90;;;;;;6221565;23;20145;-89
2023/01/11 05:56:41;;;;;;;68.38;15.02;;;10.30;99.90;;;;;;6197894;23;20168;-87
2023/01/11 05:59:07;;;;;;;72.38;16.80;;;10.30;99.90;;;;;;6223696;23;20145;-89
2023/01/11 06:01:33;;;;;;;70.05;18.15;;;10.30;99.90;;;;;;6198498;23;20145;-88
2023/01/11 06:03:59;;;;;;;70.30;21.25;;;10.30;99.90;;;;;;6198362;23;20168;-88
2023/01/11 06:06:25;;;;;;;70.93;19.60;;;10.30;99.90;;;;;;6199570;23;20215;-88
2023/01/11 06:08:50;;;;;;;70.07;19.13;;;10.30;99.90;;;;;;6199677;23;20147;-89
2023/01/11 06:11:16;;;;;;;69.87;17.87;;;10.30;99.90;;;;;;6225036;23;20376;-88
2023/01/11 06:13:42;;;;;;;69.00;17.10;;;10.30;99.90;;;;;;6195420;23;20202;-87
2023/01/11 06:16:16;;;;;;;70.47;19.30;;;10.40;99.90;;;;;;6220621;23;20164;-88
2023/01/11 06:18:44;;;;;;;69.22;15.65;;;10.30;99.90;;;;;;6220595;23;20146;-87
2023/01/11 06:21:11;;;;;;;68.57;12.77;;;10.40;99.90;;;;;;6220907;23;20150;-87
2023/01/11 06:23:39;;;;;;;68.68;14.68;;;10.40;99.90;;;;;;6220461;23;20156;-88
2023/01/11 06:26:08;;;;;;;70.38;19.23;;;10.40;99.90;;;;;;6224289;23;20159;-89
2023/01/11 06:28:35;;;;;;;69.00;14.93;;;10.40;99.90;;;;;;6226983;23;20219;-88
2023/01/11 06:31:01;;;;;;;72.18;17.08;;;10.40;99.90;;;;;;6200179;23;20280;-88
2023/01/11 06:33:28;;;;;;;68.00;13.37;;;10.40;99.90;;;;;;6227862;23;20145;-88
2023/01/11 06:35:54;;;;;;;69.72;17.90;;;10.40;99.90;;;;;;6198650;23;20419;-87
2023/01/11 06:38:22;;;;;;;69.07;16.08;;;10.40;99.90;;;;;;6225154;23;20148;-89
2023/01/11 06:40:56;;;;;;;68.13;14.65;;;10.40;99.90;;;;;;6200191;23;20212;-88
2023/01/11 06:43:23;;;;;;;68.85;13.23;;;10.40;99.90;;;;;;6224880;23;20152;-89
2023/01/11 06:45:49;;;;;;;68.78;14.32;;;10.40;99.90;;;;;;6198041;23;20648;-89
2023/01/11 06:48:16;;;;;;;76.40;18.07;;;10.40;99.90;;;;;;6225452;23;20137;-88
2023/01/11 06:50:42;;;;;;;69.72;13.20;;;10.40;99.90;;;;;;6225354;23;20415;-88
2023/01/11 06:53:08;;;;;;;70.60;13.80;;;10.40;99.90;;;;;;6224009;23;20136;-88
2023/01/11 06:55:34;;;;;;;75.67;13.40;;;10.50;99.90;;;;;;6225146;23;20188;-88
2023/01/11 06:57:59;;;;;;;71.17;11.90;;;10.50;99.90;;;;;;6224732;23;20141;-87
2023/01/11 07:00:25;;;;;;;73.13;9.97;;;10.50;99.90;;;;;;6198288;23;20145;-88
2023/01/11 07:02:52;;;;;;;71.50;10.87;;;10.50;99.90;;;;;;6225955;23;20227;-89
2023/01/11 07:05:18;;;;;;;76.82;9.95;;;10.50;99.90;;;;;;6225267;23;20200;-89
2023/01/11 07:07:43;;;;;;;71.65;10.07;;;10.50;99.90;;;;;;6196784;23;20233;-87
2023/01/11 07:10:14;;;;;;;70.30;10.10;;;10.50;99.90;;;;;;6223616;23;20132;-88
2023/01/11 07:12:40;;;;;;;70.40;9.27;;;10.50;99.90;;;;;;6198088;23;20152;-88
2023/01/11 07:15:08;;;;;;;66.53;7.72;;;10.50;99.90;;;;;;6225020;23;20158;-88
2023/01/11 07:17:34;;;;;;;67.20;9.88;;;10.60;99.90;;;;;;6197567;23;20171;-89
2023/01/11 07:20:00;;;;;;;68.00;9.73;;;10.50;99.90;;;;;;6225503;23;20140;-87
2023/01/11 07:22:26;;;;;;;70.07;11.27;;;10.60;99.90;;;;;;6222395;23;20175;-88
2023/01/11 07:24:52;;;;;;;68.10;11.30;;;10.60;99.90;;;;;;6223838;23;20191;-87
2023/01/11 07:27:21;;;;;;;67.40;11.10;;;10.60;99.90;;;;;;6223332;23;20156;-87
2023/01/11 07:29:46;;;;;;;67.57;10.30;;;10.60;99.90;;;;;;6222688;23;20141;-87
2023/01/11 07:32:12;;;;;;;68.37;10.13;;;10.50;99.90;;;;;;6222637;23;20190;-88
2023/01/11 07:34:38;;;;;;;66.57;9.40;;;10.60;99.90;;;;;;6222806;23;20513;-88
2023/01/11 07:37:04;;;;;;;66.47;9.57;;;10.60;99.90;;;;;;6221755;23;20721;-88
2023/01/11 07:39:30;;;;;;;67.00;8.73;;;10.70;99.90;;;;;;6220991;23;20148;-87
2023/01/11 07:44:39;;;;;;;66.47;7.80;;;10.70;99.90;;;;;;6221458;23;20212;-88
2023/01/11 07:47:05;;;;;;;66.10;8.00;;;10.70;99.90;;;;;;6222570;23;20158;-89
2023/01/11 07:49:31;;;;;;;66.60;8.47;;;10.80;99.90;;;;;;6197572;23;20179;-88
2023/01/11 07:51:57;;;;;;;66.87;7.70;;;10.70;99.90;;;;;;6224639;23;20167;-89
2023/01/11 07:54:23;;;;;;;65.73;7.73;;;10.70;99.90;;;;;;6197966;23;20379;-88
2023/01/11 07:56:50;;;;;;;65.57;7.07;;;10.70;99.90;;;;;;6197192;23;20626;-87
2023/01/11 07:59:16;;;;;;;66.57;9.90;;;10.70;99.90;;;;;;6224964;23;20212;-88
2023/01/11 08:01:42;;;;;;;66.13;7.40;;;10.70;99.90;;;;;;6196887;23;20153;-87
2023/01/11 08:04:11;;;;;;;65.57;6.50;;;10.80;99.90;;;;;;6196724;23;20175;-87
2023/01/11 08:06:37;;;;;;;65.30;6.72;;;10.70;99.90;;;;;;6194661;23;20243;-87
2023/01/11 08:09:04;;;;;;;65.93;7.00;;;10.80;99.90;;;;;;6219880;23;20447;-87
2023/01/11 08:16:58;;;;;;;65.55;7.88;;;10.80;99.90;;;;;;6219874;23;20176;-87
2023/01/11 08:19:23;;;;;;;66.77;8.20;;;10.80;99.90;;;;;;6194098;23;20148;-87
2023/01/11 08:21:50;;;;;;;66.57;9.27;;;10.70;99.90;;;;;;6222376;23;20163;-87
2023/01/11 08:24:15;;;;;;;65.93;7.15;;;10.70;99.90;;;;;;6195757;23;20176;-87
2023/01/11 08:26:41;;;;;;;66.60;11.00;;;10.70;99.90;;;;;;6222444;23;20200;-87
2023/01/11 08:29:07;;;;;;;67.90;11.73;;;10.70;99.90;;;;;;6194379;23;20198;-87
2023/01/11 08:31:32;;;;;;;67.20;9.13;;;10.60;99.90;;;;;;6221339;23;20168;-87
2023/01/11 08:33:58;;;;;;;67.47;8.83;;;10.60;99.90;;;;;;6193404;23;20148;-87
2023/01/11 08:36:26;;;;;;;67.43;7.93;;;10.60;99.90;;;;;;6219110;23;20188;-87
2023/01/11 08:38:58;;;;;;;66.30;8.40;;;10.60;99.90;;;;;;6192010;23;20218;-87
2023/01/11 08:41:24;;;;;;;65.97;6.78;;;10.60;99.90;;;;;;6191990;23;20149;-87
2023/01/11 08:43:50;;;;;;;65.80;5.80;;;10.60;99.90;;;;;;6192729;23;20173;-87
2023/01/11 08:46:17;;;;;;;67.30;7.50;;;10.60;99.90;;;;;;6219468;23;20210;-87
2023/01/11 08:48:45;;;;;;;65.70;6.72;;;10.70;99.90;;;;;;6192814;23;20152;-86
2023/01/11 08:51:12;;;;;;;66.15;7.55;;;10.70;99.90;;;;;;6192665;23;20152;-87
2023/01/11 08:53:38;;;;;;;66.40;6.65;;;10.60;99.90;;;;;;6192467;23;20155;-86
2023/01/11 08:56:04;;;;;;;66.80;7.70;;;10.60;99.90;;;;;;6218971;23;20160;-87
2023/01/11 08:58:30;;;;;;;68.13;10.48;;;10.70;99.90;;;;;;6192481;23;20228;-87
2023/01/11 09:01:01;;;;;;;67.10;9.50;;;10.70;99.90;;;;;;6218334;23;20150;-86
2023/01/11 09:03:28;;;;;;;68.30;9.32;;;10.80;99.90;;;;;;6218602;23;20248;-87
2023/01/11 09:05:55;;;;;;;67.88;8.43;;;10.80;99.90;;;;;;6193476;23;20180;-86
2023/01/11 09:08:22;;;;;;;66.85;7.22;;;10.80;99.90;;;;;;6218454;23;20478;-86
2023/01/11 09:10:48;;;;;;;67.25;6.95;;;10.80;99.90;;;;;;6192051;23;20150;-87
2023/01/11 09:13:14;;;;;;;66.20;7.53;;;10.80;99.90;;;;;;6219034;23;20141;-86
2023/01/11 09:15:39;;;;;;;66.53;6.53;;;10.80;99.90;;;;;;6193287;23;20169;-86
2023/01/11 09:18:05;;;;;;;68.10;5.97;;;10.90;99.90;;;;;;6218939;23;20147;-87
2023/01/11 09:20:31;;;;;;;66.20;6.07;;;10.80;99.90;;;;;;6218821;23;20231;-87
2023/01/11 09:22:56;;;;;;;65.63;5.53;;;10.90;99.90;;;;;;6218408;23;20163;-87
2023/01/11 09:25:22;;;;;;;68.07;5.27;;;10.80;99.90;;;;;;6218274;23;20430;-87
2023/01/11 09:27:50;;;;;;;66.23;5.30;;;10.80;99.90;;;;;;6218528;23;20141;-87
2023/01/11 09:30:18;;;;;;;65.97;5.90;;;10.80;99.90;;;;;;6197989;23;20137;-87
2023/01/11 09:32:45;;;;;;;66.60;4.97;;;10.80;99.90;;;;;;6197611;23;20148;-86
2023/01/11 09:35:11;;;;;;;68.88;6.07;;;10.90;99.90;;;;;;6226396;23;20148;-88
2023/01/11 09:37:40;;;;;;;68.00;5.60;;;10.90;99.90;;;;;;6224592;23;20165;-87
2023/01/11 09:40:11;;;;;;;68.78;5.93;;;10.90;99.90;;;;;;6197565;23;20487;-88
2023/01/11 09:42:42;;;;;;;67.88;6.22;;;10.90;99.90;;;;;;6225685;23;20562;-86
2023/01/11 09:45:19;;;;;;;74.70;5.82;;;10.90;99.90;;;;;;6198744;23;20176;-87
2023/01/11 09:47:50;;;;;;;77.68;6.15;;;10.90;99.90;;;;;;6223713;23;20128;-87
2023/01/11 09:50:28;;;;;;;69.75;5.18;;;10.90;99.90;;;;;;6221741;23;20129;-87
2023/01/11 09:53:08;;;;;;;73.72;6.15;;;10.90;99.90;;;;;;6220635;23;20163;-88
2023/01/11 09:55:35;;;;;;;70.38;5.78;;;10.90;99.90;;;;;;6219867;23;20152;-87
2023/01/11 09:58:21;;;;;;;73.93;7.35;;;10.90;99.90;;;;;;6219892;23;20134;-86
2023/01/11 10:01:01;;;;;;;74.55;5.97;;;10.90;99.90;;;;;;6219559;23;20574;-87
2023/01/11 10:03:42;;;;;;;71.65;6.03;;;10.90;99.90;;;;;;6220701;23;20164;-86
2023/01/11 10:06:49;;;;;;;73.32;6.50;;;10.90;99.90;;;;;;6194119;23;20183;-86
2023/01/11 10:09:35;;;;;;;70.78;5.70;;;10.90;99.90;;;;;;6205238;23;20148;-86
2023/01/11 10:12:24;;;;;;;76.88;5.68;;;11.00;99.90;;;;;;6220558;23;20124;-86
2023/01/11 10:15:16;;;;;;;73.10;5.72;;;10.90;99.90;;;;;;6220148;23;20463;-86
2023/01/11 10:18:03;;;;;;;75.72;5.30;;;11.00;99.90;;;;;;6220041;23;20243;-87
2023/01/11 10:20:42;;;;;;;71.75;6.13;;;10.90;99.90;;;;;;6193543;23;20586;-86
2023/01/11 10:23:28;;;;;;;71.20;5.78;;;10.90;99.90;;;;;;6236897;22;20196;-87
2023/01/11 10:25:57;;;;;;;76.75;5.80;;;11.00;99.90;;;;;;6242145;22;20164;-88
2023/01/11 10:28:30;;;;;;;72.63;6.40;;;11.00;99.90;;;;;;6214926;23;20155;-87
2023/01/11 10:34:23;;;;;;;69.10;5.00;;;11.00;99.90;;;;;;6240335;23;20144;-86
2023/01/11 10:42:32;;;;;;;76.55;6.25;;;11.00;99.90;;;;;;6241097;23;20121;-87
2023/01/11 10:45:16;;;;;;;69.50;5.78;;;10.90;99.90;;;;;;6241646;23;20140;-87
2023/01/11 10:47:56;;;;;;;76.53;6.28;;;10.90;99.90;;;;;;6241551;23;20157;-86
2023/01/11 10:51:19;;;;;;;71.40;7.35;;;10.90;99.90;;;;;;6214872;23;20132;-86
2023/01/11 10:53:56;;;;;;;70.18;6.10;;;10.90;99.90;;;;;;6120863;23;20143;-86
2023/01/11 10:56:44;;;;;;;71.57;6.20;;;10.90;99.90;;;;;;6097304;23;20182;-86
2023/01/11 10:59:30;;;;;;;75.70;7.70;;;10.80;99.90;;;;;;6219683;23;20166;-86
2023/01/11 11:02:08;;;;;;;72.07;5.63;;;10.70;99.90;;;;;;6214197;23;20128;-87
2023/01/11 11:05:06;;;;;;;72.82;6.90;;;10.70;99.90;;;;;;6240980;23;20378;-87
2023/01/11 11:07:53;;;;;;;74.53;7.88;;;10.60;99.90;;;;;;6241123;23;20141;-88
2023/01/11 11:10:58;;;;;;;71.10;8.40;;;10.60;99.90;;;;;;6242440;23;20136;-87
2023/01/11 11:13:59;;;;;;;82.45;8.55;;;10.60;99.90;;;;;;6208531;23;20148;-87
2023/01/11 11:16:45;;;;;;;77.43;9.27;;;10.50;99.90;;;;;;6243481;22;20215;-87
2023/01/11 11:19:15;;;;;;;78.97;12.68;;;10.50;99.90;;;;;;6243167;23;20141;-86
2023/01/11 11:21:42;;;;;;;68.22;9.50;;;10.50;99.90;;;;;;6241385;23;20216;-87
2023/01/11 11:24:26;;;;;;;70.45;10.35;;;10.40;99.90;;;;;;6241907;22;20199;-85
2023/01/11 11:27:07;;;;;;;77.90;11.38;;;10.40;99.90;;;;;;6216454;23;20175;-88
2023/01/11 11:29:41;;;;;;;74.35;10.45;;;10.40;99.90;;;;;;6218973;23;20149;-88
2023/01/11 11:32:18;;;;;;;73.57;10.38;;;10.40;99.90;;;;;;6245002;23;20168;-88
2023/01/11 11:34:52;;;;;;;74.47;10.13;;;10.40;99.90;;;;;;6245700;22;20219;-87
2023/01/11 11:37:22;;;;;;;81.47;10.15;;;10.30;99.90;;;;;;6245618;23;20160;-88
2023/01/11 11:39:50;;;;;;;72.63;10.90;;;10.30;99.90;;;;;;6243996;23;20117;-88
2023/01/11 11:42:19;;;;;;;79.13;9.27;;;10.30;99.90;;;;;;6244609;23;20144;-87
2023/01/11 11:45:12;;;;;;;72.63;8.93;;;10.30;99.90;;;;;;6241799;23;20161;-87
2023/01/11 11:47:38;;;;;;;78.45;9.85;;;10.20;99.90;;;;;;6243248;22;20164;-86
2023/01/11 11:50:24;;;;;;;75.20;10.03;;;10.20;99.90;;;;;;6243801;23;20147;-86
2023/01/11 11:53:14;;;;;;;84.38;12.75;;;10.10;99.90;;;;;;6240485;23;20138;-87
2023/01/11 11:55:40;;;;;;;74.90;11.27;;;10.10;99.90;;;;;;6242189;23;20140;-87
2023/01/11 11:58:18;;;;;;;75.13;13.90;;;10.10;99.90;;;;;;6245090;22;20155;-87
2023/01/11 12:00:47;;;;;;;76.53;13.35;;;10.10;99.90;;;;;;6216781;23;20128;-87
2023/01/11 12:03:16;;;;;;;75.50;12.18;;;10.10;99.90;;;;;;6244869;23;20133;-87
2023/01/11 12:05:53;;;;;;;77.78;12.75;;;10.00;99.90;;;;;;6243859;22;20168;-87
2023/01/11 12:08:20;;;;;;;78.50;12.35;;;10.10;99.90;;;;;;6241543;22;20159;-87
2023/01/11 12:10:50;;;;;;;74.13;12.93;;;10.10;99.90;;;;;;6242436;22;20137;-87
2023/01/11 12:13:42;;;;;;;81.47;12.48;;;10.10;99.90;;;;;;6242777;23;20129;-87
2023/01/11 12:16:21;;;;;;;74.13;10.40;;;10.10;99.90;;;;;;6238703;23;20176;-87
2023/01/11 12:18:47;;;;;;;82.57;14.13;;;10.10;99.90;;;;;;6243617;22;20139;-87
2023/01/11 12:21:28;;;;;;;75.18;12.50;;;10.10;99.90;;;;;;6216227;23;20148;-87
2023/01/11 12:24:08;;;;;;;79.50;13.65;;;10.20;99.90;;;;;;6237781;23;20199;-87
2023/01/11 12:26:44;;;;;;;74.28;13.38;;;10.20;99.90;;;;;;6243308;23;20156;-87
2023/01/11 12:30:03;;;;;;;75.80;12.60;;;10.20;99.90;;;;;;6244023;23;20120;-88
2023/01/11 12:32:50;;;;;;;71.93;11.80;;;10.30;99.90;;;;;;6122972;23;20154;-87
2023/01/11 12:35:27;;;;;;;73.55;11.27;;;10.20;99.90;;;;;;6123196;23;20112;-88
2023/01/11 12:37:59;;;;;;;81.65;13.95;;;10.30;99.90;;;;;;6218667;23;20163;-88
2023/01/11 12:40:34;;;;;;;86.18;12.90;;;10.30;99.90;;;;;;6218012;23;20137;-88
2023/01/11 12:43:06;;;;;;;71.65;11.65;;;10.30;99.90;;;;;;6243906;22;20145;-88
2023/01/11 12:46:01;;;;;;;76.72;12.45;;;10.30;99.90;;;;;;6244397;23;20193;-87
2023/01/11 12:48:35;;;;;;;75.57;9.30;;;10.30;99.90;;;;;;6243341;23;20148;-88
2023/01/11 12:51:38;;;;;;;80.57;10.88;;;10.30;99.90;;;;;;6243943;22;20148;-88
2023/01/11 12:54:41;;;;;;;78.55;10.50;;;10.30;99.90;;;;;;6242686;23;20151;-88
2023/01/11 12:58:01;;;;;;;77.78;10.10;;;10.40;99.90;;;;;;6216612;23;20168;-87
2023/01/11 13:00:54;;;;;;;74.13;8.82;;;10.40;99.90;;;;;;6241629;23;20117;-87
2023/01/11 13:03:57;;;;;;;74.40;9.73;;;10.50;99.90;;;;;;6242823;23;20128;-87
2023/01/11 13:07:02;;;;;;;84.07;10.50;;;10.50;99.90;;;;;;6216261;23;20164;-88
2023/01/11 13:09:33;;;;;;;77.75;10.40;;;10.60;99.90;;;;;;6195285;23;20124;-88
2023/01/11 13:12:16;;;;;;;75.95;9.85;;;10.50;99.90;;;;;;6241313;23;20131;-87
2023/01/11 13:15:01;;;;;;;73.60;8.27;;;10.60;99.90;;;;;;6242090;23;20113;-88
2023/01/11 13:17:37;;;;;;;75.03;7.95;;;10.60;99.90;;;;;;6241952;23;20161;-87
2023/01/11 13:20:27;;;;;;;74.13;7.10;;;10.70;99.90;;;;;;6239151;23;20155;-87
2023/01/11 13:23:01;;;;;;;68.60;6.90;;;10.70;99.90;;;;;;6241602;23;20180;-88
2023/01/11 13:25:31;;;;;;;72.90;8.13;;;10.70;99.90;;;;;;6240856;23;20139;-87
2023/01/11 13:27:59;;;;;;;78.80;6.68;;;10.70;99.90;;;;;;6213151;23;20132;-88
2023/01/11 13:30:26;;;;;;;71.38;5.82;;;10.70;99.90;;;;;;6239163;23;20192;-87
2023/01/11 13:33:05;;;;;;;85.40;5.32;;;10.70;99.90;;;;;;6241171;23;20163;-88